Time;durP1;ratioP1;P1;durP2;ratioP2;P2;SDS_P1;SDS_P2;PMS_P1;PMS_P2;Temp;Humidity;BMP_temperature;BMP_pressure;BME280_temperature;BME280_humidity;BME280_pressure;Samples;Min_cycle;Max_cycle;Signal;HPM_P1;HPM_P2
2022/11/09 00:01:20;;;;;;;35.07;27.07;;;;;;;;;;5004275;28;20180;-84
2022/11/09 00:03:46;;;;;;;39.63;30.87;;;;;;;;;;5010370;28;20195;-83
2022/11/09 00:06:12;;;;;;;38.27;29.90;;;;;;;;;;4994765;28;20172;-85
2022/11/09 00:08:39;;;;;;;39.07;30.13;;;;;;;;;;4993013;28;20199;-84
2022/11/09 00:11:06;;;;;;;39.17;29.03;;;;;;;;;;4992885;28;20275;-84
2022/11/09 00:13:35;;;;;;;39.73;29.83;;;;;;;;;;5007751;28;20183;-84
2022/11/09 00:16:01;;;;;;;37.43;29.97;;;;;;;;;;4995632;28;20175;-84
2022/11/09 00:18:28;;;;;;;43.37;31.53;;;;;;;;;;4992647;28;20663;-83
2022/11/09 00:20:54;;;;;;;39.50;29.67;;;;;;;;;;4994397;28;20764;-84
2022/11/09 00:23:20;;;;;;;36.23;27.90;;;;;;;;;;5008872;28;20183;-85
2022/11/09 00:25:47;;;;;;;35.27;28.77;;;;;;;;;;5002471;28;20184;-84
2022/11/09 00:28:13;;;;;;;41.27;30.30;;;;;;;;;;4992703;28;20652;-84
2022/11/09 00:30:39;;;;;;;37.93;29.70;;;;;;;;;;4993223;28;20180;-84
2022/11/09 00:33:06;;;;;;;38.80;29.30;;;;;;;;;;4994185;28;20219;-84
2022/11/09 00:35:32;;;;;;;34.77;29.67;;;;;;;;;;4992834;28;20277;-83
2022/11/09 00:37:58;;;;;;;41.10;32.53;;;;;;;;;;4989570;28;20381;-84
2022/11/09 00:40:24;;;;;;;39.37;30.17;;;;;;;;;;4974328;28;20191;-84
2022/11/09 00:42:50;;;;;;;35.07;27.30;;;;;;;;;;4990471;28;20545;-84
2022/11/09 00:45:16;;;;;;;38.67;28.70;;;;;;;;;;4973558;28;20181;-84
2022/11/09 00:47:43;;;;;;;32.90;27.87;;;;;;;;;;4992710;28;20176;-83
2022/11/09 00:50:09;;;;;;;36.83;28.07;;;;;;;;;;4994222;28;20707;-84
2022/11/09 00:52:35;;;;;;;35.93;27.73;;;;;;;;;;4992105;28;20279;-84
2022/11/09 00:55:02;;;;;;;37.07;27.97;;;;;;;;;;5007854;28;20184;-84
2022/11/09 00:57:27;;;;;;;36.40;28.43;;;;;;;;;;4993028;28;20168;-84
2022/11/09 00:59:53;;;;;;;34.47;26.90;;;;;;;;;;4992688;28;20660;-84
2022/11/09 01:02:19;;;;;;;36.47;28.47;;;;;;;;;;5005361;28;20195;-84
2022/11/09 01:04:45;;;;;;;36.33;28.53;;;;;;;;;;4973407;28;20243;-84
2022/11/09 01:07:11;;;;;;;33.27;26.10;;;;;;;;;;4979872;28;20188;-84
2022/11/09 01:09:38;;;;;;;42.17;30.13;;;;;;;;;;4992212;28;20203;-84
2022/11/09 01:12:04;;;;;;;38.97;29.40;;;;;;;;;;4992929;28;20184;-84
2022/11/09 01:14:30;;;;;;;37.83;27.70;;;;;;;;;;4992246;28;20219;-84
2022/11/09 01:16:56;;;;;;;37.33;28.47;;;;;;;;;;5008153;28;20183;-84
2022/11/09 01:19:22;;;;;;;40.17;29.70;;;;;;;;;;5008961;28;20183;-84
2022/11/09 01:21:48;;;;;;;42.73;30.97;;;;;;;;;;4994237;28;20227;-85
2022/11/09 01:24:14;;;;;;;38.50;29.13;;;;;;;;;;4992678;28;20545;-84
2022/11/09 01:26:40;;;;;;;41.63;30.37;;;;;;;;;;4993805;28;20199;-84
2022/11/09 01:29:06;;;;;;;41.03;28.77;;;;;;;;;;4979765;28;20208;-84
2022/11/09 01:31:32;;;;;;;38.67;28.67;;;;;;;;;;4986460;28;20187;-84
2022/11/09 01:33:58;;;;;;;38.00;28.20;;;;;;;;;;5010982;28;20330;-84
2022/11/09 01:36:24;;;;;;;42.43;30.53;;;;;;;;;;4995222;28;20262;-84
2022/11/09 01:38:51;;;;;;;45.03;31.77;;;;;;;;;;4997314;28;20680;-84
2022/11/09 01:41:21;;;;;;;40.60;29.23;;;;;;;;;;5008259;28;20188;-84
2022/11/09 01:44:03;;;;;;;46.97;31.67;;;;;;;;;;5008467;28;20191;-85
2022/11/09 01:46:38;;;;;;;36.40;28.47;;;;;;;;;;5008563;28;20182;-84
2022/11/09 01:49:08;;;;;;;43.53;30.83;;;;;;;;;;4993877;28;20196;-84
2022/11/09 01:51:37;;;;;;;39.43;28.73;;;;;;;;;;4977840;28;20184;-85
2022/11/09 01:54:16;;;;;;;42.43;29.90;;;;;;;;;;4985768;28;20176;-84
2022/11/09 01:56:43;;;;;;;42.93;30.30;;;;;;;;;;5014392;28;20296;-84
2022/11/09 01:59:12;;;;;;;40.33;30.57;;;;;;;;;;4989076;28;20275;-84
2022/11/09 02:01:39;;;;;;;41.40;31.23;;;;;;;;;;4995021;28;20707;-84
2022/11/09 02:04:10;;;;;;;47.63;32.97;;;;;;;;;;5011025;28;20207;-84
2022/11/09 02:06:36;;;;;;;44.80;30.77;;;;;;;;;;4996270;28;20203;-84
2022/11/09 02:09:17;;;;;;;38.57;30.20;;;;;;;;;;4996709;28;20204;-84
2022/11/09 02:11:43;;;;;;;41.93;29.57;;;;;;;;;;5014535;28;20557;-84
2022/11/09 02:14:10;;;;;;;47.60;31.60;;;;;;;;;;5003477;28;20216;-84
2022/11/09 02:16:36;;;;;;;45.30;30.67;;;;;;;;;;5015786;28;20261;-82
2022/11/09 02:19:02;;;;;;;45.40;31.17;;;;;;;;;;5002430;28;20192;-84
2022/11/09 02:21:30;;;;;;;42.47;30.77;;;;;;;;;;5015811;28;20207;-84
2022/11/09 02:23:56;;;;;;;45.20;32.70;;;;;;;;;;5023719;28;20176;-84
2022/11/09 02:26:25;;;;;;;44.20;32.43;;;;;;;;;;5013640;28;20256;-85
2022/11/09 02:28:54;;;;;;;43.37;30.53;;;;;;;;;;5018673;28;20218;-83
2022/11/09 02:31:20;;;;;;;45.97;31.40;;;;;;;;;;5034688;28;20239;-84
2022/11/09 02:33:53;;;;;;;44.67;32.27;;;;;;;;;;5018242;28;20167;-84
2022/11/09 02:36:20;;;;;;;45.90;32.33;;;;;;;;;;5017842;28;20179;-84
2022/11/09 02:38:45;;;;;;;46.07;31.23;;;;;;;;;;5012878;28;20247;-83
2022/11/09 02:41:12;;;;;;;51.83;32.60;;;;;;;;;;5009632;28;20182;-84
2022/11/09 02:43:38;;;;;;;52.43;33.97;;;;;;;;;;5014473;28;20204;-82
2022/11/09 02:46:04;;;;;;;49.53;33.60;;;;;;;;;;5006834;28;20211;-83
2022/11/09 02:48:31;;;;;;;47.07;31.73;;;;;;;;;;5022793;28;20176;-84
2022/11/09 02:50:57;;;;;;;49.67;32.97;;;;;;;;;;4999912;28;20182;-84
2022/11/09 02:53:23;;;;;;;48.67;33.27;;;;;;;;;;4998201;28;20523;-84
2022/11/09 02:55:49;;;;;;;44.73;32.27;;;;;;;;;;4995780;28;20188;-84
2022/11/09 02:58:15;;;;;;;45.40;32.17;;;;;;;;;;4994730;28;20214;-84
2022/11/09 03:00:41;;;;;;;46.03;31.73;;;;;;;;;;4995254;28;20211;-83
2022/11/09 03:03:07;;;;;;;45.97;33.17;;;;;;;;;;4994427;28;20168;-83
2022/11/09 03:05:33;;;;;;;51.47;33.33;;;;;;;;;;4992728;28;20246;-83
2022/11/09 03:08:02;;;;;;;49.87;34.30;;;;;;;;;;4991252;28;20184;-83
2022/11/09 03:10:28;;;;;;;51.93;34.70;;;;;;;;;;5018044;28;20199;-83
2022/11/09 03:12:54;;;;;;;52.60;34.20;;;;;;;;;;5012161;28;20233;-83
2022/11/09 03:15:20;;;;;;;42.70;31.83;;;;;;;;;;4994195;28;20633;-84
2022/11/09 03:17:46;;;;;;;45.43;32.10;;;;;;;;;;5010176;28;20195;-84
2022/11/09 03:20:12;;;;;;;45.00;32.00;;;;;;;;;;5006811;28;20185;-84
2022/11/09 03:22:39;;;;;;;50.23;34.80;;;;;;;;;;4983121;28;20202;-85
2022/11/09 03:25:05;;;;;;;48.60;33.67;;;;;;;;;;4990736;28;20184;-86
2022/11/09 03:27:31;;;;;;;60.63;35.13;;;;;;;;;;5009456;28;20268;-85
2022/11/09 03:29:57;;;;;;;49.13;33.23;;;;;;;;;;4985190;28;20248;-85
2022/11/09 03:32:23;;;;;;;51.23;34.97;;;;;;;;;;4978709;28;20196;-83
2022/11/09 03:34:50;;;;;;;53.53;33.90;;;;;;;;;;4991273;28;20219;-84
2022/11/09 03:37:16;;;;;;;57.33;35.97;;;;;;;;;;4993453;28;20187;-83
2022/11/09 03:39:42;;;;;;;58.47;35.60;;;;;;;;;;4994885;28;20181;-84
2022/11/09 03:42:08;;;;;;;49.67;33.53;;;;;;;;;;4994968;28;20184;-83
2022/11/09 03:44:34;;;;;;;54.57;36.07;;;;;;;;;;5007055;28;20881;-84
2022/11/09 03:47:00;;;;;;;49.37;33.67;;;;;;;;;;5009956;28;20190;-84
2022/11/09 03:49:26;;;;;;;52.87;34.63;;;;;;;;;;5005816;28;20215;-84
2022/11/09 03:51:52;;;;;;;51.73;34.37;;;;;;;;;;4977296;28;20184;-84
2022/11/09 03:54:18;;;;;;;49.97;34.43;;;;;;;;;;4992607;28;20184;-84
2022/11/09 03:56:44;;;;;;;52.37;35.43;;;;;;;;;;5008762;28;20187;-84
2022/11/09 03:59:10;;;;;;;53.67;35.30;;;;;;;;;;4989129;28;20562;-83
2022/11/09 04:01:36;;;;;;;55.53;35.20;;;;;;;;;;5004445;28;20207;-84
2022/11/09 04:04:03;;;;;;;55.80;35.37;;;;;;;;;;5010292;28;20258;-83
2022/11/09 04:06:29;;;;;;;58.30;34.23;;;;;;;;;;4992596;28;20656;-84
2022/11/09 04:08:55;;;;;;;54.37;35.63;;;;;;;;;;4993910;28;20207;-84
2022/11/09 04:11:21;;;;;;;52.50;34.07;;;;;;;;;;4992010;28;20191;-84
2022/11/09 04:13:47;;;;;;;54.30;35.60;;;;;;;;;;4990079;28;20190;-84
2022/11/09 04:16:13;;;;;;;51.60;34.23;;;;;;;;;;4994524;28;20182;-84
2022/11/09 04:18:39;;;;;;;56.87;36.77;;;;;;;;;;4974245;28;20177;-84
2022/11/09 04:21:05;;;;;;;66.20;39.27;;;;;;;;;;4954515;28;1136402;-84
2022/11/09 04:23:31;;;;;;;53.17;33.93;;;;;;;;;;4988481;28;20206;-84
2022/11/09 04:25:58;;;;;;;56.53;36.47;;;;;;;;;;5010541;28;20214;-84
2022/11/09 04:28:25;;;;;;;59.87;36.37;;;;;;;;;;4994406;28;20293;-84
2022/11/09 04:30:51;;;;;;;56.90;36.77;;;;;;;;;;4994487;28;20173;-83
2022/11/09 04:33:17;;;;;;;50.40;34.47;;;;;;;;;;4992863;28;20182;-84
2022/11/09 04:35:43;;;;;;;56.20;36.53;;;;;;;;;;4993284;28;20584;-84
2022/11/09 04:38:12;;;;;;;51.63;35.27;;;;;;;;;;4996855;28;20180;-84
2022/11/09 04:40:38;;;;;;;54.30;34.20;;;;;;;;;;5009730;28;20196;-84
2022/11/09 04:43:05;;;;;;;54.47;36.07;;;;;;;;;;4993467;28;20233;-84
2022/11/09 04:45:32;;;;;;;52.77;36.13;;;;;;;;;;4979868;28;20173;-84
2022/11/09 04:47:59;;;;;;;67.20;39.20;;;;;;;;;;4990412;28;20234;-83
2022/11/09 04:50:26;;;;;;;58.77;37.33;;;;;;;;;;4993206;28;20215;-84
2022/11/09 04:52:52;;;;;;;64.63;38.80;;;;;;;;;;4992188;28;20180;-84
2022/11/09 04:55:18;;;;;;;51.83;35.30;;;;;;;;;;4993438;28;20211;-84
2022/11/09 04:57:44;;;;;;;58.97;37.47;;;;;;;;;;5004504;28;20537;-84
2022/11/09 05:00:10;;;;;;;65.63;38.53;;;;;;;;;;4992276;28;20191;-84
2022/11/09 05:02:36;;;;;;;56.80;35.60;;;;;;;;;;4989173;28;20184;-84
2022/11/09 05:05:02;;;;;;;49.03;31.70;;;;;;;;;;4984155;28;20207;-84
2022/11/09 05:07:28;;;;;;;55.57;37.43;;;;;;;;;;4993163;28;20211;-85
2022/11/09 05:09:54;;;;;;;58.60;36.80;;;;;;;;;;4992495;28;20211;-84
2022/11/09 05:12:20;;;;;;;61.73;39.40;;;;;;;;;;4990985;28;20203;-86
2022/11/09 05:14:46;;;;;;;61.33;37.77;;;;;;;;;;4979017;28;20626;-85
2022/11/09 05:17:12;;;;;;;59.73;37.10;;;;;;;;;;4999591;28;20183;-85
2022/11/09 05:19:38;;;;;;;57.10;37.70;;;;;;;;;;5010066;28;20190;-85
2022/11/09 05:24:50;;;;;;;80.70;42.13;;;;;;;;;;5017062;28;20271;-84
2022/11/09 05:27:16;;;;;;;58.83;37.90;;;;;;;;;;4994860;28;20190;-84
2022/11/09 05:29:42;;;;;;;67.47;39.33;;;;;;;;;;5007941;28;20289;-84
2022/11/09 05:32:08;;;;;;;58.80;37.80;;;;;;;;;;4990758;28;20211;-84
2022/11/09 05:34:34;;;;;;;61.07;38.90;;;;;;;;;;4992398;28;20198;-84
2022/11/09 05:37:00;;;;;;;66.87;39.97;;;;;;;;;;4995234;28;20180;-84
2022/11/09 05:39:26;;;;;;;68.83;37.97;;;;;;;;;;4992436;28;20276;-84
2022/11/09 05:41:52;;;;;;;69.37;40.97;;;;;;;;;;4998672;28;20265;-84
2022/11/09 05:44:18;;;;;;;59.47;37.73;;;;;;;;;;4999755;28;20179;-83
2022/11/09 05:46:44;;;;;;;66.03;39.23;;;;;;;;;;5011487;28;20195;-83
2022/11/09 05:49:10;;;;;;;57.63;35.77;;;;;;;;;;4995670;28;20615;-84
2022/11/09 05:51:36;;;;;;;67.97;39.47;;;;;;;;;;4997031;28;20176;-84
2022/11/09 05:54:02;;;;;;;64.17;39.30;;;;;;;;;;4995438;28;20176;-84
2022/11/09 05:56:28;;;;;;;61.03;38.40;;;;;;;;;;5003053;28;20243;-84
2022/11/09 05:58:56;;;;;;;55.43;36.70;;;;;;;;;;5000802;28;20199;-84
2022/11/09 06:01:22;;;;;;;60.57;37.50;;;;;;;;;;4995481;28;20180;-84
2022/11/09 06:03:48;;;;;;;65.07;38.77;;;;;;;;;;4992853;28;20179;-84
2022/11/09 06:06:16;;;;;;;66.23;39.70;;;;;;;;;;5008642;28;20177;-84
2022/11/09 06:08:42;;;;;;;62.57;40.27;;;;;;;;;;4989846;28;20687;-85
2022/11/09 06:11:10;;;;;;;61.87;38.40;;;;;;;;;;4993426;28;20192;-84
2022/11/09 06:13:36;;;;;;;67.30;39.37;;;;;;;;;;4993187;28;20187;-84
2022/11/09 06:16:04;;;;;;;64.87;39.43;;;;;;;;;;4995011;28;20195;-84
2022/11/09 06:18:30;;;;;;;71.97;42.70;;;;;;;;;;4992023;28;20191;-83
2022/11/09 06:21:01;;;;;;;65.00;40.37;;;;;;;;;;5007879;28;20231;-84
2022/11/09 06:23:28;;;;;;;61.60;41.37;;;;;;;;;;4988525;28;20294;-85
2022/11/09 06:25:57;;;;;;;64.33;40.17;;;;;;;;;;5014629;28;20549;-85
2022/11/09 06:28:23;;;;;;;69.67;41.63;;;;;;;;;;4995333;28;20254;-84
2022/11/09 06:30:49;;;;;;;68.80;40.47;;;;;;;;;;5004547;28;20184;-84
2022/11/09 06:33:15;;;;;;;64.17;39.37;;;;;;;;;;4987770;28;20191;-82
2022/11/09 06:35:43;;;;;;;65.70;39.67;;;;;;;;;;4982402;28;20191;-84
2022/11/09 06:38:10;;;;;;;64.10;38.03;;;;;;;;;;4989349;28;20187;-83
2022/11/09 06:40:36;;;;;;;64.83;40.23;;;;;;;;;;4975863;28;20242;-84
2022/11/09 06:43:03;;;;;;;67.03;40.53;;;;;;;;;;4991252;28;20187;-84
2022/11/09 06:45:29;;;;;;;62.77;37.57;;;;;;;;;;4987697;28;20638;-83
2022/11/09 06:47:59;;;;;;;62.20;38.60;;;;;;;;;;4984775;28;20192;-83
2022/11/09 06:50:26;;;;;;;61.27;39.37;;;;;;;;;;4984349;28;20212;-83
2022/11/09 06:52:55;;;;;;;65.33;41.77;;;;;;;;;;5005747;28;20291;-84
2022/11/09 06:55:21;;;;;;;71.03;42.30;;;;;;;;;;4991565;28;20613;-84
2022/11/09 06:57:47;;;;;;;59.00;39.13;;;;;;;;;;4991194;28;20186;-83
2022/11/09 07:00:14;;;;;;;58.93;39.07;;;;;;;;;;4997530;28;20195;-84
2022/11/09 07:02:41;;;;;;;63.80;40.90;;;;;;;;;;4979306;28;20189;-84
2022/11/09 07:05:08;;;;;;;54.33;37.53;;;;;;;;;;4981642;28;20195;-83
2022/11/09 07:07:34;;;;;;;59.50;38.23;;;;;;;;;;5005054;28;20594;-84
2022/11/09 07:10:00;;;;;;;59.43;37.33;;;;;;;;;;4979199;28;20258;-83
2022/11/09 07:12:26;;;;;;;60.87;40.03;;;;;;;;;;4991751;28;20198;-84
2022/11/09 07:14:52;;;;;;;61.97;39.40;;;;;;;;;;5009056;28;20274;-84
2022/11/09 07:17:18;;;;;;;57.37;39.17;;;;;;;;;;5009841;28;20192;-84
2022/11/09 07:19:44;;;;;;;56.63;36.93;;;;;;;;;;4990896;28;20193;-83
2022/11/09 07:22:10;;;;;;;57.50;38.53;;;;;;;;;;4993427;28;20684;-84
2022/11/09 07:24:36;;;;;;;60.23;39.57;;;;;;;;;;4992733;28;20191;-84
2022/11/09 07:27:02;;;;;;;60.73;39.47;;;;;;;;;;4994056;28;20596;-82
2022/11/09 07:29:28;;;;;;;55.87;38.07;;;;;;;;;;4993769;28;20219;-83
2022/11/09 07:31:54;;;;;;;61.70;39.23;;;;;;;;;;4986181;28;20200;-83
2022/11/09 07:34:20;;;;;;;55.20;37.27;;;;;;;;;;4987175;28;20210;-83
2022/11/09 07:36:46;;;;;;;54.07;38.37;;;;;;;;;;4993581;28;20203;-83
2022/11/09 07:39:12;;;;;;;59.23;38.87;;;;;;;;;;5008174;28;20211;-83
2022/11/09 07:41:38;;;;;;;61.13;38.40;;;;;;;;;;5008467;28;20183;-83
2022/11/09 07:44:04;;;;;;;52.10;36.47;;;;;;;;;;5009067;28;20611;-83
2022/11/09 07:46:31;;;;;;;55.73;38.17;;;;;;;;;;4990320;28;20263;-84
2022/11/09 07:48:57;;;;;;;49.57;37.20;;;;;;;;;;4992380;28;20560;-82
2022/11/09 07:51:23;;;;;;;52.03;36.87;;;;;;;;;;4996267;28;20724;-83
2022/11/09 07:53:49;;;;;;;51.80;36.30;;;;;;;;;;5010635;28;20277;-83
2022/11/09 07:56:15;;;;;;;60.70;38.10;;;;;;;;;;5000173;28;20179;-83
2022/11/09 07:58:41;;;;;;;55.73;37.43;;;;;;;;;;4982452;28;20194;-83
2022/11/09 08:01:08;;;;;;;56.43;38.10;;;;;;;;;;5011351;28;20183;-83
2022/11/09 08:03:34;;;;;;;52.23;36.77;;;;;;;;;;4992500;28;20211;-83
2022/11/09 08:06:00;;;;;;;56.27;37.83;;;;;;;;;;5012097;28;20214;-84
2022/11/09 08:08:26;;;;;;;51.40;36.13;;;;;;;;;;4992435;28;20277;-83
2022/11/09 08:10:52;;;;;;;52.53;36.77;;;;;;;;;;4990485;28;20324;-84
2022/11/09 08:13:19;;;;;;;51.73;37.00;;;;;;;;;;4992181;28;20211;-84
2022/11/09 08:15:45;;;;;;;52.77;36.00;;;;;;;;;;4990810;28;20180;-83
2022/11/09 08:18:13;;;;;;;52.50;35.43;;;;;;;;;;4997850;28;20565;-83
2022/11/09 08:20:39;;;;;;;54.90;37.40;;;;;;;;;;4981362;28;20231;-83
2022/11/09 08:23:05;;;;;;;50.77;35.93;;;;;;;;;;4990870;28;20195;-83
2022/11/09 08:25:33;;;;;;;51.53;37.20;;;;;;;;;;4989761;28;20229;-83
2022/11/09 08:27:59;;;;;;;49.43;35.23;;;;;;;;;;4990041;28;20172;-83
2022/11/09 08:30:25;;;;;;;48.27;33.53;;;;;;;;;;4989921;28;20676;-83
2022/11/09 08:32:51;;;;;;;48.17;34.97;;;;;;;;;;4985689;28;20553;-83
2022/11/09 08:35:19;;;;;;;48.77;34.93;;;;;;;;;;4990749;28;20187;-83
2022/11/09 08:37:45;;;;;;;46.97;33.50;;;;;;;;;;5003706;28;20192;-83
2022/11/09 08:40:12;;;;;;;41.93;32.37;;;;;;;;;;4986639;28;20251;-83
2022/11/09 08:42:38;;;;;;;47.30;34.03;;;;;;;;;;4987897;28;20238;-83
2022/11/09 08:45:04;;;;;;;47.53;32.33;;;;;;;;;;4983859;28;20188;-83
2022/11/09 08:47:30;;;;;;;45.23;34.20;;;;;;;;;;4977667;28;20816;-83
2022/11/09 08:49:56;;;;;;;43.97;32.30;;;;;;;;;;4975130;28;20206;-82
2022/11/09 08:52:22;;;;;;;45.10;33.27;;;;;;;;;;4988986;28;20270;-83
2022/11/09 08:54:48;;;;;;;43.20;32.33;;;;;;;;;;4970221;28;20180;-82
2022/11/09 08:57:16;;;;;;;43.83;32.80;;;;;;;;;;4985817;28;20187;-83
2022/11/09 08:59:42;;;;;;;44.93;31.17;;;;;;;;;;5003857;28;20203;-83
2022/11/09 09:02:09;;;;;;;43.60;31.93;;;;;;;;;;5005248;28;20180;-83
2022/11/09 09:04:35;;;;;;;43.13;32.93;;;;;;;;;;4988224;28;20282;-83
2022/11/09 09:07:01;;;;;;;46.60;32.47;;;;;;;;;;4986644;28;20208;-83
2022/11/09 09:09:27;;;;;;;43.30;32.67;;;;;;;;;;5003417;28;20262;-83
2022/11/09 09:11:53;;;;;;;44.13;31.73;;;;;;;;;;5004003;28;20199;-83
2022/11/09 09:14:19;;;;;;;46.03;32.27;;;;;;;;;;5001913;28;20189;-83
2022/11/09 09:16:45;;;;;;;41.17;31.53;;;;;;;;;;4989462;28;20184;-83
2022/11/09 09:19:11;;;;;;;40.20;30.77;;;;;;;;;;4989898;28;20180;-83
2022/11/09 09:21:37;;;;;;;48.07;32.20;;;;;;;;;;4993189;28;20598;-83
2022/11/09 09:24:03;;;;;;;41.67;31.67;;;;;;;;;;4977559;28;20199;-81
2022/11/09 09:26:29;;;;;;;42.97;30.57;;;;;;;;;;4977718;28;20191;-81
2022/11/09 09:28:55;;;;;;;40.73;30.90;;;;;;;;;;4978961;28;20246;-81
2022/11/09 09:31:21;;;;;;;42.30;30.70;;;;;;;;;;5005097;28;20191;-81
2022/11/09 09:33:47;;;;;;;39.33;29.23;;;;;;;;;;4982465;28;20632;-82
2022/11/09 09:36:17;;;;;;;41.87;30.77;;;;;;;;;;4982447;28;20192;-82
2022/11/09 09:38:43;;;;;;;40.00;29.37;;;;;;;;;;4981641;28;20250;-81
2022/11/09 09:41:16;;;;;;;41.90;29.73;;;;;;;;;;5004007;28;20924;-82
2022/11/09 09:43:45;;;;;;;38.53;29.63;;;;;;;;;;4986622;28;20941;-81
2022/11/09 09:46:14;;;;;;;40.47;30.23;;;;;;;;;;4989070;28;20176;-81
2022/11/09 09:48:45;;;;;;;38.83;29.50;;;;;;;;;;4989347;28;20206;-81
2022/11/09 09:51:17;;;;;;;38.33;29.03;;;;;;;;;;4989883;28;20665;-82
2022/11/09 09:53:46;;;;;;;38.93;30.30;;;;;;;;;;5001547;28;20184;-82
2022/11/09 09:56:15;;;;;;;41.63;30.97;;;;;;;;;;4976505;28;20246;-81
2022/11/09 09:58:44;;;;;;;40.27;29.97;;;;;;;;;;4991509;28;20227;-81
2022/11/09 10:01:15;;;;;;;39.33;28.83;;;;;;;;;;4992949;28;20184;-82
2022/11/09 10:03:42;;;;;;;39.97;30.43;;;;;;;;;;4989370;28;20184;-81
2022/11/09 10:06:14;;;;;;;40.87;30.83;;;;;;;;;;4993279;28;20194;-81
2022/11/09 10:08:40;;;;;;;37.83;28.87;;;;;;;;;;5007576;28;20992;-82
2022/11/09 10:11:29;;;;;;;34.97;27.67;;;;;;;;;;4989993;28;20188;-82
2022/11/09 10:14:14;;;;;;;35.67;28.27;;;;;;;;;;4990295;28;20204;-81
2022/11/09 10:16:47;;;;;;;37.37;29.43;;;;;;;;;;4991297;28;20271;-82
2022/11/09 10:19:22;;;;;;;38.80;29.37;;;;;;;;;;4988589;28;20180;-82
2022/11/09 10:21:51;;;;;;;40.00;29.20;;;;;;;;;;4984654;28;20245;-81
2022/11/09 10:24:23;;;;;;;36.17;27.30;;;;;;;;;;5001408;28;20239;-82
2022/11/09 10:26:50;;;;;;;35.97;28.17;;;;;;;;;;4980634;28;20189;-81
2022/11/09 10:29:20;;;;;;;36.93;27.87;;;;;;;;;;4979636;28;20211;-82
2022/11/09 10:31:47;;;;;;;36.27;28.33;;;;;;;;;;4990826;28;20208;-81
2022/11/09 10:34:18;;;;;;;37.60;27.00;;;;;;;;;;4992455;28;20175;-82
2022/11/09 10:36:47;;;;;;;36.87;27.80;;;;;;;;;;4987564;28;20199;-82
2022/11/09 10:39:14;;;;;;;37.00;28.43;;;;;;;;;;5002485;28;20191;-82
2022/11/09 10:41:43;;;;;;;35.70;27.13;;;;;;;;;;4986115;28;20188;-82
2022/11/09 10:44:16;;;;;;;36.40;27.20;;;;;;;;;;5006881;28;20188;-82
2022/11/09 10:47:21;;;;;;;36.80;27.63;;;;;;;;;;4991892;28;20179;-82
2022/11/09 10:50:04;;;;;;;35.13;27.83;;;;;;;;;;4935831;28;20248;-81
2022/11/09 10:52:38;;;;;;;34.00;26.90;;;;;;;;;;4937837;28;20177;-82
2022/11/09 10:55:15;;;;;;;29.23;24.17;;;;;;;;;;4932589;29;20245;-81
2022/11/09 10:58:01;;;;;;;33.57;25.97;;;;;;;;;;4950793;28;20197;-82
2022/11/09 11:00:27;;;;;;;33.77;27.10;;;;;;;;;;4937423;29;20200;-82
2022/11/09 11:02:54;;;;;;;34.47;27.10;;;;;;;;;;4935486;29;20550;-82
2022/11/09 11:05:20;;;;;;;35.83;27.23;;;;;;;;;;4936197;29;20298;-81
2022/11/09 11:07:46;;;;;;;31.93;27.17;;;;;;;;;;4934893;28;20193;-81
2022/11/09 11:10:15;;;;;;;33.57;27.30;;;;;;;;;;4932672;29;20212;-82
2022/11/09 11:12:42;;;;;;;38.13;27.77;;;;;;;;;;4951800;28;20197;-81
2022/11/09 11:15:24;;;;;;;38.40;28.30;;;;;;;;;;4951815;28;20207;-81
2022/11/09 11:17:51;;;;;;;30.33;25.63;;;;;;;;;;4936257;29;20196;-82
2022/11/09 11:20:26;;;;;;;38.00;28.10;;;;;;;;;;4955084;28;20200;-81
2022/11/09 11:23:05;;;;;;;36.40;29.00;;;;;;;;;;4976169;28;20191;-82
2022/11/09 11:25:31;;;;;;;33.97;28.50;;;;;;;;;;4988466;28;20184;-82
2022/11/09 11:28:17;;;;;;;33.13;26.80;;;;;;;;;;4990328;28;20180;-82
2022/11/09 11:30:43;;;;;;;34.47;26.87;;;;;;;;;;4989127;28;20568;-81
2022/11/09 11:33:14;;;;;;;33.80;26.70;;;;;;;;;;4989464;28;20191;-82
2022/11/09 11:35:44;;;;;;;37.67;28.07;;;;;;;;;;4987179;28;20226;-82
2022/11/09 11:38:29;;;;;;;36.63;27.83;;;;;;;;;;4977050;28;20344;-81
2022/11/09 11:41:14;;;;;;;34.60;26.03;;;;;;;;;;4996792;28;20275;-81
2022/11/09 11:43:46;;;;;;;36.80;28.50;;;;;;;;;;4989616;28;20176;-82
2022/11/09 11:46:12;;;;;;;38.07;27.73;;;;;;;;;;4990392;28;20199;-82
2022/11/09 11:48:53;;;;;;;32.07;26.93;;;;;;;;;;4996411;28;20223;-83
2022/11/09 11:51:19;;;;;;;36.03;27.10;;;;;;;;;;4985967;28;20191;-81
2022/11/09 11:53:48;;;;;;;32.43;26.20;;;;;;;;;;5004290;28;20192;-82
2022/11/09 11:56:29;;;;;;;35.63;25.40;;;;;;;;;;5005164;28;20530;-82
2022/11/09 11:59:14;;;;;;;32.40;26.53;;;;;;;;;;4990199;28;20233;-82
2022/11/09 12:01:42;;;;;;;35.57;26.40;;;;;;;;;;4989110;28;20526;-82
2022/11/09 12:04:18;;;;;;;29.07;24.77;;;;;;;;;;4990758;28;20219;-82
2022/11/09 12:06:53;;;;;;;32.20;24.67;;;;;;;;;;4986072;28;20187;-81
2022/11/09 12:09:22;;;;;;;34.33;25.33;;;;;;;;;;4986535;28;20357;-83
2022/11/09 12:12:12;;;;;;;30.00;24.30;;;;;;;;;;5005151;28;20223;-82
2022/11/09 12:14:57;;;;;;;32.60;25.07;;;;;;;;;;5004817;28;20546;-81
2022/11/09 12:17:50;;;;;;;30.93;24.90;;;;;;;;;;5005977;28;20195;-81
2022/11/09 12:20:22;;;;;;;28.17;23.07;;;;;;;;;;4977259;28;20184;-83
2022/11/09 12:22:54;;;;;;;31.00;24.23;;;;;;;;;;4988672;28;20279;-81
2022/11/09 12:25:41;;;;;;;34.60;24.57;;;;;;;;;;4990091;28;20188;-81
2022/11/09 12:28:14;;;;;;;32.67;24.57;;;;;;;;;;4993340;28;20665;-82
2022/11/09 12:30:47;;;;;;;31.57;24.27;;;;;;;;;;5003653;28;20744;-82
2022/11/09 12:33:13;;;;;;;30.97;24.40;;;;;;;;;;4984256;28;20192;-82
2022/11/09 12:35:41;;;;;;;28.37;23.53;;;;;;;;;;4980610;28;20266;-83
2022/11/09 12:38:16;;;;;;;32.67;24.73;;;;;;;;;;5004478;28;20655;-82
2022/11/09 12:40:47;;;;;;;30.40;24.80;;;;;;;;;;4988106;28;20184;-82
2022/11/09 12:43:31;;;;;;;31.53;25.23;;;;;;;;;;4989945;28;20230;-82
2022/11/09 12:45:58;;;;;;;30.90;25.43;;;;;;;;;;4990417;28;20192;-83
2022/11/09 12:48:24;;;;;;;31.17;24.67;;;;;;;;;;4993690;28;20192;-82
2022/11/09 12:50:51;;;;;;;33.70;25.93;;;;;;;;;;4986817;28;20233;-82
2022/11/09 12:53:17;;;;;;;32.30;26.00;;;;;;;;;;4987971;28;20242;-82
2022/11/09 12:55:50;;;;;;;32.50;26.50;;;;;;;;;;4989589;28;20185;-81
2022/11/09 12:58:24;;;;;;;33.23;25.00;;;;;;;;;;4975891;28;20172;-82
2022/11/09 13:00:52;;;;;;;31.10;25.17;;;;;;;;;;4983450;28;20664;-83
2022/11/09 13:03:20;;;;;;;32.40;25.13;;;;;;;;;;4985977;28;20204;-82
2022/11/09 13:05:48;;;;;;;31.37;25.03;;;;;;;;;;4988638;28;20195;-81
2022/11/09 13:08:19;;;;;;;35.80;26.53;;;;;;;;;;5003846;28;20201;-82
2022/11/09 13:10:45;;;;;;;33.33;27.67;;;;;;;;;;4988522;28;20295;-83
2022/11/09 13:13:13;;;;;;;37.20;27.73;;;;;;;;;;4989802;28;20187;-83
2022/11/09 13:15:59;;;;;;;33.23;26.97;;;;;;;;;;4990407;28;20192;-81
2022/11/09 13:18:31;;;;;;;40.60;28.53;;;;;;;;;;4982842;28;20188;-83
2022/11/09 13:21:16;;;;;;;31.97;26.40;;;;;;;;;;4976650;28;20228;-82
2022/11/09 13:23:44;;;;;;;34.47;26.67;;;;;;;;;;4980349;28;20183;-82
2022/11/09 13:26:30;;;;;;;34.10;27.23;;;;;;;;;;4989949;28;20380;-82
2022/11/09 13:29:12;;;;;;;31.43;25.93;;;;;;;;;;4989328;28;20592;-82
2022/11/09 13:31:56;;;;;;;34.63;26.53;;;;;;;;;;4991332;28;20183;-83
2022/11/09 13:34:38;;;;;;;34.87;26.70;;;;;;;;;;5025465;28;20156;-81
2022/11/09 13:37:23;;;;;;;32.17;26.43;;;;;;;;;;5015405;28;20239;-81
2022/11/09 13:39:49;;;;;;;33.90;26.17;;;;;;;;;;5015265;28;20180;-83
2022/11/09 13:42:23;;;;;;;35.73;26.27;;;;;;;;;;5007693;28;20192;-81
2022/11/09 13:44:49;;;;;;;32.73;26.47;;;;;;;;;;5011429;28;20195;-81
2022/11/09 13:47:34;;;;;;;35.60;26.50;;;;;;;;;;5012037;28;20187;-79
2022/11/09 13:50:00;;;;;;;32.27;26.30;;;;;;;;;;5015619;28;20226;-80
2022/11/09 13:52:47;;;;;;;35.90;27.03;;;;;;;;;;5002538;28;20207;-81
2022/11/09 13:55:42;;;;;;;35.67;26.27;;;;;;;;;;4994160;28;20661;-80
2022/11/09 13:58:21;;;;;;;33.27;27.03;;;;;;;;;;5007074;28;20295;-83
2022/11/09 14:00:47;;;;;;;34.07;26.93;;;;;;;;;;4997213;28;20637;-82
2022/11/09 14:03:19;;;;;;;34.03;27.00;;;;;;;;;;5013199;28;20241;-82
2022/11/09 14:05:48;;;;;;;35.40;26.83;;;;;;;;;;5024982;28;20188;-82
2022/11/09 14:08:20;;;;;;;33.10;26.13;;;;;;;;;;5017863;28;20172;-83
2022/11/09 14:10:54;;;;;;;35.37;26.00;;;;;;;;;;5016649;28;20215;-82
2022/11/09 14:13:29;;;;;;;35.80;27.10;;;;;;;;;;5011924;28;20175;-83
2022/11/09 14:16:21;;;;;;;34.10;26.47;;;;;;;;;;5021672;28;20203;-83
2022/11/09 14:19:06;;;;;;;31.63;26.23;;;;;;;;;;5001462;28;20195;-83
2022/11/09 14:21:32;;;;;;;36.63;27.63;;;;;;;;;;5012191;28;20227;-83
2022/11/09 14:24:15;;;;;;;36.00;26.77;;;;;;;;;;5011688;28;20286;-83
2022/11/09 14:26:58;;;;;;;35.23;26.50;;;;;;;;;;5010688;28;20191;-84
2022/11/09 14:29:24;;;;;;;33.73;27.10;;;;;;;;;;5011101;28;20215;-84